Aérodrome :
LOGIN :

S'inscrire | Disclaimer

   EN    FR    IT 

 










Légende :    VFR   VFR Marginal   IFR   IFR Intensif   IFR Très Intensif
Visi : 
Plafond : 
>= 8 km
>= 3000ft
5 à 8 km
1000 à 3000 ft
1500m à 5 km
500 à 1000 ft
800 à 1500m
200 à 500 ft
< 800m
< 200 ft
Symboles :   Orages  Brouillard  Fortes neiges  Fortes précipitations  Vent > 20 kt
SIGMETs :   Divers  Orages  Givrage  Turbulence  Onde Orograph.  Cendres Volcan.







- Altitude de l'aérodrome : 681 ft
- Code IATA : LBA
- Voir les cartes d'approche


EGNM - Leeds Bradford

DERNIER METAR :
  • 170120Z 24016G33KT 190V290 9999 BKN031 12/10 Q1008

METARs EXPIRÉS :
  • 170050Z 23019G33KT 180V270 9999 BKN031 12/10 Q1008
  • 170020Z 23019G31KT 190V290 9999 BKN032 12/10 Q1007
  • 162350Z 23017G32KT 150V280 9999 BKN032 12/10 Q1007
  • 162320Z 22018G35KT 180V270 9999 BKN034 12/10 Q1007
  • 162250Z 23018G30KT 180V270 9999 BKN034 13/10 Q1007

TAF TAF EGNM
Valide du 17 à 00h jusqu'au 18 à 00h UTC


162257Z 1700/1724 23020G35KT 9999 SCT030
TEMPO 1700/1709 23025G45KT
PROB30
TEMPO 1700/1704 23030G55KT
BECMG 1711/1714 25015G25KT
BECMG 1714/1717 26010KT
BECMG 1721/1724 VRB03KT
ATIS : +44 113 250 9696 (x2489)
Pas de NOTAMs connus pour ce terrain.
3 SIGMETs publiés pour la FIR London (EGTT) :
 
Turbulence forte
EGTT SIGMET 10 VALID 162300/170100 EGRR
EGTT LONDON FIR SEV TURB FCST NW OF LINE N4928 W00800 - N5422 E00425 SFC/FL060 MOV N 10KT NC=
Turbulence forte
EGTT SIGMET 02 VALID 170100/170500 EGRR
EGTT LONDON FIR SEV TURB FCST NW OF LINE N5008 W00800 - N5411 E00416 SFC/FL060 MOV N 15KT NC=
Onde orographique forte
EGTT SIGMET 01 VALID 170100/170500 EGRR
EGTT LONDON FIR SEV MTW FCST N OF LINE N5029 W00800 - N5205 E00228 FL030/200 MOV N 15KT NC=



MET'MAP, la Météo Aéronautique d'un coup d'oeil ! - Copyright ORBIFLY Décembre 2007 - Disclaimer

ORBIFLY MET'MAP TEAM :

Programmation & Développement : Alexandra Zaïnal
Conception & Développement : Baudouin d'Aumeries
Co-Programmation & Développement : Marc-Olivier Méhu
Soutien technique & logistique : Manuel Goepfert

Contact : metmap@orbifly.com




SOURCES & CREDITS :

   NOAA